createdAt,value
2022-12-15T00:00:20.674Z,47.30
2022-12-15T00:03:06.768Z,52.20
2022-12-15T00:05:52.628Z,45.40
2022-12-15T00:08:38.430Z,47.13
2022-12-15T00:11:24.418Z,40.97
2022-12-15T00:14:10.461Z,39.27
2022-12-15T00:16:56.557Z,33.17
2022-12-15T00:19:42.584Z,34.05
2022-12-15T00:22:28.344Z,31.60
2022-12-15T00:25:14.196Z,33.42
2022-12-15T00:27:59.916Z,37.05
2022-12-15T00:30:49.606Z,33.10
2022-12-15T00:33:36.440Z,33.97
2022-12-15T00:36:22.818Z,36.15
2022-12-15T00:38:50.227Z,34.33
2022-12-15T00:41:18.906Z,34.78
2022-12-15T00:43:46.780Z,32.25
2022-12-15T00:46:33.474Z,34.38
2022-12-15T00:49:02.721Z,35.25
2022-12-15T00:51:48.441Z,32.05
2022-12-15T00:54:34.151Z,32.23
2022-12-15T00:57:19.833Z,30.88
2022-12-15T01:00:05.825Z,31.00
2022-12-15T01:02:51.912Z,27.17
2022-12-15T01:05:38.253Z,29.45
2022-12-15T01:08:24.188Z,27.13
2022-12-15T01:11:10.166Z,30.13
2022-12-15T01:13:56.056Z,30.77
2022-12-15T01:16:42.014Z,31.95
2022-12-15T01:19:27.801Z,29.67
2022-12-15T01:21:55.242Z,29.63
2022-12-15T01:24:22.804Z,33.13
2022-12-15T01:26:50.273Z,32.70
2022-12-15T01:29:17.603Z,26.98
2022-12-15T01:31:44.999Z,30.25
2022-12-15T01:34:20.032Z,28.42
2022-12-15T01:36:47.557Z,27.40
2022-12-15T01:39:15.043Z,28.15
2022-12-15T01:41:42.433Z,24.73
2022-12-15T01:44:36.769Z,25.23
2022-12-15T01:47:05.480Z,26.77
2022-12-15T01:49:33.112Z,30.30
2022-12-15T01:52:04.100Z,28.92
2022-12-15T01:54:48.663Z,27.50
2022-12-15T01:57:24.157Z,26.70
2022-12-15T01:59:59.069Z,27.98
2022-12-15T02:02:32.401Z,24.33
2022-12-15T02:05:04.945Z,25.50
2022-12-15T02:07:32.302Z,23.87
2022-12-15T02:10:02.840Z,29.30
2022-12-15T02:13:07.223Z,19.70
2022-12-15T02:15:47.332Z,24.80
2022-12-15T02:18:28.085Z,24.03
2022-12-15T02:21:13.975Z,22.00
2022-12-15T02:24:06.216Z,24.43
2022-12-15T02:26:45.224Z,24.85
2022-12-15T02:29:29.400Z,22.65
2022-12-15T02:32:21.728Z,27.08
2022-12-15T02:35:06.369Z,23.77
2022-12-15T02:37:37.057Z,23.92
2022-12-15T02:40:07.647Z,24.87
2022-12-15T02:42:40.634Z,26.27
2022-12-15T02:45:11.201Z,24.65
2022-12-15T02:48:04.733Z,24.48
2022-12-15T02:50:48.404Z,27.23
2022-12-15T02:53:31.533Z,22.60
2022-12-15T02:56:22.824Z,24.67
2022-12-15T02:59:32.377Z,22.08
2022-12-15T03:02:06.107Z,22.27
2022-12-15T03:04:33.953Z,23.50
2022-12-15T03:07:05.586Z,26.35
2022-12-15T03:09:33.741Z,23.83
2022-12-15T03:12:01.249Z,26.02
2022-12-15T03:14:28.692Z,23.33
2022-12-15T03:16:56.422Z,24.57
2022-12-15T03:19:23.887Z,20.23
2022-12-15T03:21:51.590Z,20.33
2022-12-15T03:24:19.152Z,22.77
2022-12-15T03:26:50.022Z,20.27
2022-12-15T03:29:17.862Z,21.33
2022-12-15T03:31:45.655Z,20.48
2022-12-15T03:34:17.222Z,17.63
2022-12-15T03:36:44.683Z,20.95
2022-12-15T03:39:12.456Z,15.35
2022-12-15T03:41:41.548Z,18.85
2022-12-15T03:44:08.876Z,19.05
2022-12-15T03:46:36.233Z,17.83
2022-12-15T03:49:03.827Z,18.15
2022-12-15T03:51:31.189Z,21.40
2022-12-15T03:53:59.129Z,20.33
2022-12-15T03:56:28.022Z,20.83
2022-12-15T03:58:58.620Z,20.73
2022-12-15T04:01:28.735Z,19.20
2022-12-15T04:04:01.239Z,17.85
2022-12-15T04:06:33.243Z,20.00
2022-12-15T04:09:03.367Z,20.00
2022-12-15T04:11:33.471Z,23.15
2022-12-15T04:14:01.173Z,20.60
2022-12-15T04:16:28.877Z,22.60
2022-12-15T04:19:15.055Z,23.27
2022-12-15T04:21:42.682Z,24.00
2022-12-15T04:24:28.844Z,24.92
2022-12-15T04:27:15.114Z,32.35
2022-12-15T04:30:01.443Z,31.08
2022-12-15T04:32:50.062Z,31.20
2022-12-15T04:35:36.375Z,35.70
2022-12-15T04:38:23.094Z,32.40
2022-12-15T04:41:09.537Z,31.00
2022-12-15T04:43:55.836Z,35.47
2022-12-15T04:46:42.360Z,34.00
2022-12-15T04:49:28.964Z,35.10
2022-12-15T04:52:15.130Z,31.63
2022-12-15T04:55:01.340Z,33.33
2022-12-15T04:57:48.113Z,33.20
2022-12-15T05:00:34.629Z,28.02
2022-12-15T05:03:25.418Z,30.45
2022-12-15T05:06:12.092Z,32.20
2022-12-15T05:08:58.548Z,30.02
2022-12-15T05:11:44.725Z,30.25
2022-12-15T05:14:30.904Z,25.52
2022-12-15T05:17:17.041Z,28.95
2022-12-15T05:20:03.365Z,32.87
2022-12-15T05:22:49.891Z,31.23
2022-12-15T05:25:36.080Z,28.45
2022-12-15T05:28:25.288Z,32.40
2022-12-15T05:31:11.823Z,31.83
2022-12-15T05:33:39.456Z,32.23
2022-12-15T05:36:07.302Z,37.72
2022-12-15T05:38:35.057Z,32.42
2022-12-15T05:41:02.717Z,34.58
2022-12-15T05:43:30.881Z,38.20
2022-12-15T05:46:03.074Z,37.95
2022-12-15T05:48:30.724Z,36.97
2022-12-15T05:50:58.323Z,37.08
2022-12-15T05:53:25.997Z,37.83
2022-12-15T05:55:53.629Z,34.25
2022-12-15T05:58:21.276Z,41.15
2022-12-15T06:00:48.992Z,41.60
2022-12-15T06:03:16.643Z,36.83
2022-12-15T06:05:44.311Z,36.65
2022-12-15T06:08:11.961Z,41.65
2022-12-15T06:10:39.701Z,37.25
2022-12-15T06:13:07.320Z,41.88
2022-12-15T06:15:34.921Z,37.33
2022-12-15T06:18:02.547Z,43.08
2022-12-15T06:20:30.115Z,38.17
2022-12-15T06:22:57.967Z,40.53
2022-12-15T06:25:25.590Z,39.92
2022-12-15T06:27:58.381Z,39.00
2022-12-15T06:30:28.730Z,36.72
2022-12-15T06:32:58.846Z,43.65
2022-12-15T06:35:28.840Z,37.85
2022-12-15T06:37:56.444Z,44.75
2022-12-15T06:40:24.134Z,42.15
2022-12-15T06:42:51.771Z,42.95
2022-12-15T06:45:19.530Z,41.25
2022-12-15T06:47:48.895Z,39.25
2022-12-15T06:50:16.642Z,41.83
2022-12-15T06:52:44.305Z,43.70
2022-12-15T06:55:12.021Z,46.53
2022-12-15T06:57:39.267Z,42.33
2022-12-15T07:00:07.324Z,44.13
2022-12-15T07:02:36.131Z,43.75
2022-12-15T07:05:03.615Z,40.13
2022-12-15T07:07:31.013Z,46.45
2022-12-15T07:09:58.326Z,40.77
2022-12-15T07:12:25.828Z,40.67
2022-12-15T07:14:53.645Z,44.78
2022-12-15T07:17:23.029Z,41.90
2022-12-15T07:19:50.716Z,43.20
2022-12-15T07:22:18.553Z,41.22
2022-12-15T07:24:46.063Z,45.67
2022-12-15T07:27:13.722Z,43.75
2022-12-15T07:29:41.087Z,40.92
2022-12-15T07:32:08.461Z,42.88
2022-12-15T07:34:35.931Z,45.20
2022-12-15T07:37:03.800Z,42.33
2022-12-15T07:39:32.393Z,41.43
2022-12-15T07:42:03.122Z,42.78
2022-12-15T07:44:32.529Z,42.85
2022-12-15T07:46:59.978Z,43.70
2022-12-15T07:49:27.707Z,45.58
2022-12-15T07:51:58.454Z,42.30
2022-12-15T07:54:26.225Z,40.55
2022-12-15T07:56:53.562Z,45.00
2022-12-15T07:59:20.926Z,49.17
2022-12-15T08:01:49.389Z,38.25
2022-12-15T08:04:16.976Z,37.00
2022-12-15T08:06:44.832Z,41.33
2022-12-15T08:09:12.273Z,40.47
2022-12-15T08:11:39.626Z,38.13
2022-12-15T08:14:13.308Z,41.50
2022-12-15T08:16:42.641Z,39.88
2022-12-15T08:19:13.157Z,43.60
2022-12-15T08:21:42.159Z,43.05
2022-12-15T08:24:10.289Z,44.90
2022-12-15T08:26:38.469Z,35.20
2022-12-15T08:31:54.650Z,37.13
2022-12-15T08:34:22.161Z,39.33
2022-12-15T08:36:49.598Z,42.23
2022-12-15T08:39:17.075Z,38.67
2022-12-15T08:41:44.805Z,38.20
2022-12-15T08:44:12.306Z,37.15
2022-12-15T08:46:39.992Z,39.55
2022-12-15T08:49:08.837Z,38.53
2022-12-15T08:51:36.572Z,34.95
2022-12-15T08:54:04.033Z,38.13
2022-12-15T08:56:31.378Z,35.15
2022-12-15T08:59:01.476Z,37.95
2022-12-15T09:01:32.413Z,38.97
2022-12-15T09:04:01.439Z,39.92
2022-12-15T09:06:31.494Z,34.85
2022-12-15T09:09:02.117Z,40.27
2022-12-15T09:11:30.575Z,38.13
2022-12-15T09:13:58.928Z,37.28
2022-12-15T09:16:27.821Z,39.03
2022-12-15T09:18:57.234Z,35.63
2022-12-15T09:21:27.386Z,38.93
2022-12-15T09:23:58.394Z,37.78
2022-12-15T09:26:26.199Z,39.92
2022-12-15T09:28:57.769Z,39.37
2022-12-15T09:31:33.188Z,41.10
2022-12-15T09:34:01.345Z,39.80
2022-12-15T09:36:30.881Z,43.72
2022-12-15T09:38:59.216Z,38.75
2022-12-15T09:41:30.267Z,46.80
2022-12-15T09:44:06.450Z,39.97
2022-12-15T09:47:02.056Z,42.85
2022-12-15T09:50:01.120Z,39.05
2022-12-15T09:52:41.528Z,40.90
2022-12-15T09:55:32.701Z,36.00
2022-12-15T09:58:11.264Z,34.70
2022-12-15T10:00:52.534Z,38.03
2022-12-15T10:03:34.422Z,37.13
2022-12-15T10:06:21.260Z,34.83
2022-12-15T10:08:50.544Z,35.17
2022-12-15T10:11:34.027Z,38.45
2022-12-15T10:14:24.175Z,35.27
2022-12-15T10:17:12.861Z,33.90
2022-12-15T10:19:42.321Z,33.00
2022-12-15T10:22:18.101Z,36.17
2022-12-15T10:27:46.504Z,35.20
2022-12-15T10:30:20.153Z,36.23
2022-12-15T10:32:59.906Z,36.25
2022-12-15T10:35:33.628Z,32.10
2022-12-15T10:38:04.484Z,36.10
2022-12-15T10:40:53.144Z,34.53
2022-12-15T10:43:37.406Z,40.03
2022-12-15T10:46:05.370Z,33.70
2022-12-15T10:48:35.087Z,37.50
2022-12-15T10:51:31.694Z,32.85
2022-12-15T10:54:04.659Z,36.63
2022-12-15T10:56:34.283Z,34.03
2022-12-15T10:59:22.509Z,35.25
2022-12-15T11:01:50.934Z,37.07
2022-12-15T11:04:30.580Z,39.00
2022-12-15T11:07:03.339Z,36.95
2022-12-15T11:09:38.744Z,37.83
2022-12-15T11:12:42.770Z,34.92
2022-12-15T11:15:22.048Z,38.63
2022-12-15T11:18:05.106Z,38.80
2022-12-15T11:20:40.253Z,39.37
2022-12-15T11:23:25.325Z,36.15
2022-12-15T11:26:16.121Z,38.83
2022-12-15T11:28:48.582Z,42.13
2022-12-15T11:31:36.983Z,38.10
2022-12-15T11:34:18.348Z,39.08
2022-12-15T11:37:07.497Z,39.83
2022-12-15T11:40:10.143Z,37.40
2022-12-15T11:42:56.089Z,34.85
2022-12-15T11:45:29.155Z,31.52
2022-12-15T11:48:04.477Z,34.47
2022-12-15T11:50:41.390Z,33.83
2022-12-15T11:53:32.322Z,37.27
2022-12-15T11:56:02.692Z,37.33
2022-12-15T11:58:42.396Z,37.22
2022-12-15T12:01:31.777Z,33.80
2022-12-15T12:04:17.676Z,36.23
2022-12-15T12:06:50.248Z,31.48
2022-12-15T12:09:39.758Z,32.13
2022-12-15T12:12:23.608Z,30.33
2022-12-15T12:15:00.726Z,35.75
2022-12-15T12:17:51.614Z,32.00
2022-12-15T12:20:23.974Z,32.50
2022-12-15T12:23:05.470Z,27.83
2022-12-15T12:25:44.650Z,27.45
2022-12-15T12:28:18.492Z,28.38
2022-12-15T12:33:41.170Z,26.63
2022-12-15T12:36:13.015Z,27.50
2022-12-15T12:38:46.280Z,20.60
2022-12-15T12:41:24.318Z,26.73
2022-12-15T12:43:53.644Z,27.98
2022-12-15T12:46:25.633Z,21.77
2022-12-15T12:48:56.302Z,21.13
2022-12-15T12:51:58.592Z,22.42
2022-12-15T12:54:35.323Z,19.83
2022-12-15T12:57:26.005Z,18.98
2022-12-15T12:59:58.765Z,19.88
2022-12-15T13:02:26.732Z,20.10
2022-12-15T13:05:13.055Z,17.92
2022-12-15T13:07:41.120Z,17.95
2022-12-15T13:10:08.711Z,17.30
2022-12-15T13:12:52.247Z,18.20
2022-12-15T13:15:26.594Z,16.92
2022-12-15T13:17:56.136Z,17.65
2022-12-15T13:20:25.904Z,20.10
2022-12-15T13:22:54.281Z,15.65
2022-12-15T13:25:35.711Z,16.25
2022-12-15T13:28:16.978Z,21.27
2022-12-15T13:31:06.418Z,18.27
2022-12-15T13:33:34.844Z,23.20
2022-12-15T13:36:02.748Z,22.97
2022-12-15T13:38:50.313Z,25.00
2022-12-15T13:41:25.250Z,29.15
2022-12-15T13:43:54.524Z,33.55
2022-12-15T13:46:27.237Z,28.87
2022-12-15T13:49:04.468Z,33.15
2022-12-15T13:51:33.798Z,35.67
2022-12-15T13:54:01.511Z,34.33
2022-12-15T13:56:39.982Z,30.30
2022-12-15T13:59:17.940Z,36.78
2022-12-15T14:01:51.099Z,39.65
2022-12-15T14:04:19.509Z,28.95
2022-12-15T14:06:57.364Z,32.75
2022-12-15T14:09:32.264Z,30.23
2022-12-15T14:12:00.972Z,33.95
2022-12-15T14:14:30.058Z,38.47
2022-12-15T14:17:08.278Z,33.45
2022-12-15T14:19:40.675Z,38.35
2022-12-15T14:22:28.738Z,40.58
2022-12-15T14:25:04.948Z,38.90
2022-12-15T14:27:34.228Z,39.10
2022-12-15T14:30:22.036Z,42.92
2022-12-15T14:33:01.519Z,38.97
2022-12-15T14:35:31.276Z,41.33
2022-12-15T14:38:00.769Z,40.33
2022-12-15T14:40:29.357Z,41.70
2022-12-15T14:42:57.411Z,46.05
2022-12-15T14:45:26.689Z,40.60
2022-12-15T14:48:39.973Z,38.50
2022-12-15T14:50:46.952Z,38.17
2022-12-15T14:53:17.079Z,38.15
2022-12-15T14:55:45.097Z,41.13
2022-12-15T14:58:34.260Z,32.37
2022-12-15T15:01:03.284Z,35.63
2022-12-15T15:03:04.933Z,26.25
2022-12-15T15:03:39.089Z,35.60
2022-12-15T15:06:29.903Z,30.30
2022-12-15T15:08:57.732Z,38.78
2022-12-15T15:11:30.943Z,31.95
2022-12-15T15:14:03.708Z,34.92
2022-12-15T15:16:31.608Z,32.75
2022-12-15T15:19:01.877Z,32.03
2022-12-15T15:21:30.466Z,27.13
2022-12-15T15:24:10.811Z,31.27
2022-12-15T15:26:40.051Z,30.60
2022-12-15T15:29:26.353Z,31.53
2022-12-15T15:31:54.289Z,31.05
2022-12-15T15:34:21.876Z,30.85
2022-12-15T15:36:49.583Z,27.83
2022-12-15T15:39:18.322Z,33.70
2022-12-15T15:41:46.023Z,30.88
2022-12-15T15:44:14.935Z,30.15
2022-12-15T15:46:52.887Z,30.58
2022-12-15T15:49:21.714Z,27.13
2022-12-15T15:51:49.700Z,33.95
2022-12-15T15:54:18.854Z,29.05
2022-12-15T15:56:46.478Z,29.87
2022-12-15T15:59:16.420Z,32.70
2022-12-15T16:01:45.231Z,26.60
2022-12-15T16:04:13.148Z,30.75
2022-12-15T16:06:46.717Z,31.87
2022-12-15T16:09:15.919Z,28.17
2022-12-15T16:11:44.738Z,29.23
2022-12-15T16:14:15.900Z,29.88
2022-12-15T16:16:43.681Z,31.02
2022-12-15T16:19:14.534Z,31.48
2022-12-15T16:21:43.298Z,33.28
2022-12-15T16:24:14.638Z,30.50
2022-12-15T16:26:45.253Z,30.63
2022-12-15T16:29:18.468Z,31.77
2022-12-15T16:31:46.675Z,32.80
2022-12-15T16:34:16.465Z,31.13
2022-12-15T16:36:45.041Z,28.25
2022-12-15T16:39:23.532Z,27.77
2022-12-15T16:41:52.780Z,30.35
2022-12-15T16:44:20.594Z,32.28
2022-12-15T16:46:48.303Z,31.52
2022-12-15T16:49:16.008Z,31.35
2022-12-15T16:51:46.764Z,29.00
2022-12-15T16:54:22.261Z,30.58
2022-12-15T16:56:49.764Z,27.48
2022-12-15T16:59:35.967Z,28.60
2022-12-15T17:02:24.457Z,30.95
2022-12-15T17:04:52.240Z,27.70
2022-12-15T17:07:20.587Z,29.10
2022-12-15T17:09:51.551Z,30.73
2022-12-15T17:12:19.231Z,28.80
2022-12-15T17:14:46.686Z,29.70
2022-12-15T17:17:19.076Z,28.13
2022-12-15T17:20:20.028Z,31.38
2022-12-15T17:22:34.175Z,30.30
2022-12-15T17:25:01.725Z,30.10
2022-12-15T17:27:30.191Z,27.73
2022-12-15T17:30:00.072Z,25.73
2022-12-15T17:32:27.501Z,29.00
2022-12-15T17:34:54.942Z,27.75
2022-12-15T17:37:22.385Z,29.05
2022-12-15T17:39:51.369Z,24.20
2022-12-15T17:42:20.805Z,26.98
2022-12-15T17:44:49.140Z,22.17
2022-12-15T17:47:19.529Z,22.42
2022-12-15T17:49:47.391Z,21.20
2022-12-15T17:52:34.500Z,21.65
2022-12-15T17:55:03.249Z,24.67
2022-12-15T17:57:33.709Z,24.83
2022-12-15T18:00:02.091Z,23.75
2022-12-15T18:02:33.051Z,22.60
2022-12-15T18:05:00.580Z,22.95
2022-12-15T18:07:28.012Z,25.98
2022-12-15T18:09:55.495Z,24.40
2022-12-15T18:12:26.323Z,28.13
2022-12-15T18:14:54.959Z,25.83
2022-12-15T18:17:23.212Z,32.65
2022-12-15T18:19:50.681Z,26.77
2022-12-15T18:22:24.836Z,25.13
2022-12-15T18:24:54.120Z,25.48
2022-12-15T18:27:24.504Z,22.05
2022-12-15T18:29:52.729Z,26.48
2022-12-15T18:32:22.591Z,25.63
2022-12-15T18:34:50.651Z,26.33
2022-12-15T18:37:20.633Z,24.10
2022-12-15T18:39:48.179Z,26.00
2022-12-15T18:42:18.150Z,24.17
2022-12-15T18:44:53.250Z,25.05
2022-12-15T18:47:23.485Z,23.23
2022-12-15T18:49:51.114Z,19.27
2022-12-15T18:52:21.452Z,21.83
2022-12-15T18:54:54.210Z,21.95
2022-12-15T18:57:33.814Z,24.00
2022-12-15T19:00:14.384Z,23.90
2022-12-15T19:02:42.625Z,23.60
2022-12-15T19:05:27.277Z,26.92
2022-12-15T19:08:10.345Z,23.48
2022-12-15T19:10:50.516Z,25.63
2022-12-15T19:13:20.767Z,24.02
2022-12-15T19:15:48.390Z,22.90
2022-12-15T19:18:40.154Z,25.80
2022-12-15T19:21:49.117Z,22.13
2022-12-15T19:24:44.812Z,24.37
2022-12-15T19:27:13.702Z,22.70
2022-12-15T19:29:41.501Z,23.45
2022-12-15T19:32:09.432Z,26.02
2022-12-15T19:34:37.156Z,22.30
2022-12-15T19:37:10.000Z,21.65
2022-12-15T19:39:38.622Z,24.42
2022-12-15T19:42:14.038Z,22.47
2022-12-15T19:44:41.432Z,20.83
2022-12-15T19:47:16.177Z,21.83
2022-12-15T19:49:43.635Z,23.20
2022-12-15T19:52:18.343Z,19.92
2022-12-15T19:54:49.273Z,22.58
2022-12-15T19:57:18.732Z,22.00
2022-12-15T19:59:46.620Z,20.17
2022-12-15T20:02:19.539Z,21.95
2022-12-15T20:04:48.456Z,19.33
2022-12-15T20:07:25.432Z,20.42
2022-12-15T20:09:52.936Z,18.42
2022-12-15T20:12:20.511Z,19.38
2022-12-15T20:14:48.644Z,24.23
2022-12-15T20:17:16.099Z,19.30
2022-12-15T20:19:44.146Z,18.58
2022-12-15T20:22:17.773Z,21.83
2022-12-15T20:24:46.816Z,22.50
2022-12-15T20:27:17.201Z,20.63
2022-12-15T20:29:44.924Z,21.73
2022-12-15T20:32:20.589Z,19.77
2022-12-15T20:34:48.744Z,24.67
2022-12-15T20:37:28.585Z,18.00
2022-12-15T20:39:57.803Z,19.83
2022-12-15T20:42:25.596Z,19.40
2022-12-15T20:44:54.330Z,19.65
2022-12-15T20:47:25.111Z,22.02
2022-12-15T20:49:54.774Z,21.02
2022-12-15T20:52:25.762Z,20.37
2022-12-15T20:54:55.128Z,22.10
2022-12-15T20:57:22.734Z,18.98
2022-12-15T20:59:50.286Z,17.23
2022-12-15T21:02:20.649Z,17.27
2022-12-15T21:04:49.216Z,17.17
2022-12-15T21:07:17.754Z,16.50
2022-12-15T21:09:45.317Z,18.35
2022-12-15T21:12:22.039Z,14.37
2022-12-15T21:14:49.579Z,15.10
2022-12-15T21:17:19.567Z,16.75
2022-12-15T21:19:47.447Z,15.25
2022-12-15T21:22:21.663Z,12.98
2022-12-15T21:24:52.014Z,16.70
2022-12-15T21:27:20.075Z,15.73
2022-12-15T21:29:52.310Z,15.40
2022-12-15T21:32:21.402Z,17.73
2022-12-15T21:34:49.897Z,16.80
2022-12-15T21:37:28.868Z,15.83
2022-12-15T21:39:56.768Z,16.13
2022-12-15T21:42:24.439Z,19.10
2022-12-15T21:44:52.129Z,27.33
2022-12-15T21:47:26.635Z,22.00
2022-12-15T21:49:55.166Z,23.67
2022-12-15T21:52:25.640Z,19.42
2022-12-15T21:54:53.034Z,15.63
2022-12-15T21:57:22.173Z,18.70
2022-12-15T21:59:49.506Z,14.85
2022-12-15T22:02:26.861Z,20.80
2022-12-15T22:04:55.004Z,17.35
2022-12-15T22:07:22.685Z,13.77
2022-12-15T22:09:50.021Z,13.77
2022-12-15T22:12:22.614Z,10.43
2022-12-15T22:14:50.252Z,11.88
2022-12-15T22:17:21.736Z,12.38
2022-12-15T22:19:49.155Z,11.65
2022-12-15T22:22:16.984Z,11.13
2022-12-15T22:24:44.870Z,11.00
2022-12-15T22:27:19.818Z,12.15
2022-12-15T22:29:48.669Z,9.52
2022-12-15T22:32:17.263Z,7.55
2022-12-15T22:34:44.632Z,8.03
2022-12-15T22:37:12.017Z,8.70
2022-12-15T22:39:39.773Z,8.80
2022-12-15T22:42:07.966Z,9.95
2022-12-15T22:44:37.699Z,8.98
2022-12-15T22:47:09.644Z,7.32
2022-12-15T22:49:39.530Z,9.55
2022-12-15T22:52:16.500Z,8.23
2022-12-15T22:54:46.013Z,9.68
2022-12-15T22:57:24.013Z,7.35
2022-12-15T23:00:02.836Z,9.05
2022-12-15T23:02:37.113Z,8.55
2022-12-15T23:05:05.908Z,9.18
2022-12-15T23:07:34.082Z,8.80
2022-12-15T23:10:20.857Z,9.23
2022-12-15T23:12:48.648Z,9.85
2022-12-15T23:15:34.474Z,10.17
2022-12-15T23:18:01.895Z,9.20
2022-12-15T23:20:29.232Z,10.43
2022-12-15T23:22:56.560Z,9.52
2022-12-15T23:25:23.933Z,9.73
2022-12-15T23:27:51.586Z,11.05
2022-12-15T23:30:19.625Z,9.88
2022-12-15T23:32:46.894Z,9.68
2022-12-15T23:35:14.318Z,11.43
2022-12-15T23:37:41.779Z,10.68
2022-12-15T23:40:09.909Z,10.40
2022-12-15T23:42:37.367Z,10.40
2022-12-15T23:45:05.379Z,10.63
2022-12-15T23:47:32.834Z,10.05
2022-12-15T23:50:00.229Z,8.50
2022-12-15T23:52:28.836Z,13.13
2022-12-15T23:55:15.017Z,9.02
2022-12-15T23:57:42.385Z,9.40
